Time;durP1;ratioP1;P1;durP2;ratioP2;P2;SDS_P1;SDS_P2;PMS_P1;PMS_P2;Temp;Humidity;BMP_temperature;BMP_pressure;BME280_temperature;BME280_humidity;BME280_pressure;Samples;Min_cycle;Max_cycle;Signal;HPM_P1;HPM_P2
2022/09/24 00:01:18;;;;;;;2.73;1.90;;;11.10;99.90;;;;;;4988378;28;20494;-48
2022/09/24 00:03:50;;;;;;;2.20;1.70;;;11.20;99.90;;;;;;4988286;28;20545;-50
2022/09/24 00:06:17;;;;;;;2.77;2.13;;;11.20;99.90;;;;;;4988201;28;20466;-48
2022/09/24 00:08:45;;;;;;;3.00;2.00;;;11.20;99.90;;;;;;4988468;28;20940;-48
2022/09/24 00:11:13;;;;;;;2.70;1.83;;;11.20;99.90;;;;;;4988684;28;20482;-50
2022/09/24 00:13:40;;;;;;;2.27;1.73;;;10.90;99.90;;;;;;4988026;28;20476;-48
2022/09/24 00:16:10;;;;;;;2.47;2.27;;;11.00;99.90;;;;;;4988298;28;20473;-48
2022/09/24 00:18:39;;;;;;;2.30;2.10;;;11.00;99.90;;;;;;4988019;28;20456;-49
2022/09/24 00:21:15;;;;;;;3.20;2.13;;;11.10;99.90;;;;;;4988356;28;20481;-48
2022/09/24 00:23:42;;;;;;;3.97;1.90;;;11.20;99.90;;;;;;4987722;28;20517;-48
2022/09/24 00:28:57;;;;;;;6.27;2.40;;;11.20;99.90;;;;;;4988249;28;20434;-48
2022/09/24 00:31:23;;;;;;;2.90;2.20;;;11.20;99.90;;;;;;4987888;28;20892;-48
2022/09/24 00:33:53;;;;;;;2.53;1.90;;;11.10;99.90;;;;;;4987861;28;20978;-48
2022/09/24 00:36:21;;;;;;;3.00;2.10;;;11.00;99.90;;;;;;4987695;28;20565;-49
2022/09/24 00:38:50;;;;;;;3.60;2.60;;;11.10;99.90;;;;;;4987795;28;20533;-48
2022/09/24 00:41:18;;;;;;;2.90;2.00;;;11.20;99.90;;;;;;4988044;28;20450;-49
2022/09/24 00:43:46;;;;;;;2.40;1.90;;;11.10;99.90;;;;;;4987642;28;20488;-48
2022/09/24 00:46:19;;;;;;;5.30;2.17;;;11.20;99.90;;;;;;4988114;28;20512;-47
2022/09/24 00:48:47;;;;;;;1.97;1.50;;;11.10;99.90;;;;;;4987364;28;20528;-48
2022/09/24 00:51:19;;;;;;;3.10;1.97;;;11.00;99.90;;;;;;4987534;28;20449;-49
2022/09/24 00:53:48;;;;;;;2.20;1.70;;;11.00;99.90;;;;;;4987506;28;20445;-50
2022/09/24 00:56:16;;;;;;;2.00;1.63;;;10.90;99.90;;;;;;4987608;28;20504;-50
2022/09/24 00:58:49;;;;;;;2.03;1.73;;;10.90;99.90;;;;;;4987441;28;20461;-48
2022/09/24 01:01:16;;;;;;;2.63;1.97;;;10.90;99.90;;;;;;4990144;28;20942;-48
2022/09/24 01:03:44;;;;;;;2.87;1.80;;;10.90;99.90;;;;;;4990761;28;20476;-48
2022/09/24 01:06:11;;;;;;;3.47;2.53;;;10.90;99.90;;;;;;4990724;28;20472;-50
2022/09/24 01:08:40;;;;;;;2.03;1.93;;;10.90;99.90;;;;;;4991205;28;20486;-48
2022/09/24 01:11:30;;;;;;;3.00;1.70;;;10.90;99.90;;;;;;4991308;28;20476;-49
2022/09/24 01:14:20;;;;;;;2.33;1.80;;;10.80;99.90;;;;;;4990320;28;20475;-51
2022/09/24 01:16:54;;;;;;;2.23;1.73;;;10.70;99.90;;;;;;4990605;28;20614;-48
2022/09/24 01:19:47;;;;;;;2.37;2.17;;;10.70;99.90;;;;;;4990896;28;20535;-48
2022/09/24 01:22:26;;;;;;;2.80;1.97;;;10.80;99.90;;;;;;4990976;28;20476;-48
2022/09/24 01:25:01;;;;;;;3.23;2.00;;;10.80;99.90;;;;;;4990270;28;20477;-48
2022/09/24 01:27:43;;;;;;;1.93;1.80;;;10.90;99.90;;;;;;4990405;28;20465;-47
2022/09/24 01:30:14;;;;;;;2.10;1.90;;;11.00;99.90;;;;;;4990839;28;20863;-48
2022/09/24 01:32:44;;;;;;;4.73;2.33;;;10.90;99.90;;;;;;4990779;28;20453;-48
2022/09/24 01:35:17;;;;;;;2.50;1.83;;;10.90;99.90;;;;;;4990692;28;20476;-48
2022/09/24 01:37:50;;;;;;;4.10;2.30;;;11.00;99.90;;;;;;4990226;28;20492;-48
2022/09/24 01:40:20;;;;;;;2.30;2.00;;;11.00;99.90;;;;;;4990419;28;20955;-48
2022/09/24 01:42:49;;;;;;;3.17;2.23;;;10.90;99.90;;;;;;4990737;28;20507;-47
2022/09/24 01:45:19;;;;;;;2.90;2.07;;;10.90;99.90;;;;;;4990308;28;20454;-48
2022/09/24 01:47:46;;;;;;;3.20;2.30;;;10.80;99.90;;;;;;4991594;28;20921;-48
2022/09/24 01:50:16;;;;;;;3.30;3.00;;;10.90;99.90;;;;;;4990524;28;20451;-48
2022/09/24 01:52:48;;;;;;;2.90;2.30;;;10.70;99.90;;;;;;4990059;28;20476;-48
2022/09/24 01:55:19;;;;;;;2.10;1.87;;;10.30;99.90;;;;;;4990301;28;20457;-48
2022/09/24 01:57:51;;;;;;;3.80;2.50;;;10.10;99.90;;;;;;4989857;28;20497;-47
2022/09/24 02:00:21;;;;;;;2.10;1.90;;;10.20;99.90;;;;;;4990143;28;20974;-48
2022/09/24 02:02:53;;;;;;;2.17;1.80;;;10.50;99.90;;;;;;4990575;28;20913;-47
2022/09/24 02:05:26;;;;;;;3.17;1.97;;;10.70;99.90;;;;;;4990265;28;21006;-48
2022/09/24 02:07:58;;;;;;;3.53;2.57;;;10.70;99.90;;;;;;4990068;28;20549;-49
2022/09/24 02:10:28;;;;;;;3.47;2.90;;;10.60;99.90;;;;;;4990119;28;20842;-48
2022/09/24 02:13:01;;;;;;;2.43;2.23;;;10.60;99.90;;;;;;4989479;28;20897;-52
2022/09/24 02:15:34;;;;;;;2.90;2.47;;;10.70;99.90;;;;;;4990018;28;21030;-48
2022/09/24 02:18:05;;;;;;;3.20;2.53;;;10.70;99.90;;;;;;4990017;28;20954;-47
2022/09/24 02:20:36;;;;;;;2.50;2.30;;;10.70;99.90;;;;;;4989856;28;20555;-48
2022/09/24 02:23:04;;;;;;;2.83;2.40;;;10.80;99.90;;;;;;4989625;28;21013;-49
2022/09/24 02:25:37;;;;;;;2.57;2.17;;;10.80;99.90;;;;;;4989625;28;20981;-48
2022/09/24 02:28:04;;;;;;;4.90;2.30;;;10.70;99.90;;;;;;4990311;28;20808;-49
2022/09/24 02:30:37;;;;;;;2.20;1.80;;;10.70;99.90;;;;;;4989931;28;20640;-47
2022/09/24 02:34:19;;;;;;;3.00;2.17;;;10.60;99.90;;;;;;4989496;28;20450;-48
2022/09/24 02:35:54;;;;;;;2.70;2.10;;;10.70;99.90;;;;;;4989531;28;20461;-48
2022/09/24 02:38:22;;;;;;;7.00;2.90;;;10.80;99.90;;;;;;4989751;28;20957;-48
2022/09/24 02:40:51;;;;;;;2.63;2.40;;;10.80;99.90;;;;;;4989503;28;20505;-50
2022/09/24 02:43:18;;;;;;;2.60;2.40;;;10.80;99.90;;;;;;4989366;28;20572;-48
2022/09/24 02:45:47;;;;;;;3.00;2.80;;;10.70;99.90;;;;;;4989076;28;20482;-49
2022/09/24 02:48:13;;;;;;;2.63;2.10;;;10.70;99.90;;;;;;4989558;28;20483;-49
2022/09/24 02:50:40;;;;;;;3.53;3.00;;;10.70;99.90;;;;;;4989524;28;20528;-48
2022/09/24 02:53:07;;;;;;;4.13;2.37;;;10.60;99.90;;;;;;4989130;28;20542;-48
2022/09/24 02:55:34;;;;;;;2.47;1.93;;;10.60;99.90;;;;;;4989205;28;20491;-49
2022/09/24 02:58:01;;;;;;;2.57;2.17;;;10.60;99.90;;;;;;4989063;28;20441;-49
2022/09/24 03:00:28;;;;;;;3.33;1.80;;;10.60;99.90;;;;;;4989345;28;20540;-47
2022/09/24 03:02:56;;;;;;;1.73;1.63;;;10.50;99.90;;;;;;4989140;28;20514;-48
2022/09/24 03:05:23;;;;;;;3.10;1.93;;;10.60;99.90;;;;;;4989133;28;20911;-48
2022/09/24 03:07:50;;;;;;;2.13;1.80;;;10.60;99.90;;;;;;4989410;28;20544;-48
2022/09/24 03:10:17;;;;;;;4.40;2.43;;;10.50;99.90;;;;;;4989219;28;20450;-50
2022/09/24 03:12:44;;;;;;;3.03;2.73;;;10.40;99.90;;;;;;4989073;28;20449;-48
2022/09/24 03:15:11;;;;;;;2.60;1.90;;;9.90;99.90;;;;;;4988810;28;20943;-49
2022/09/24 03:17:38;;;;;;;2.60;2.03;;;10.00;99.90;;;;;;4988972;28;21076;-48
2022/09/24 03:20:08;;;;;;;3.20;2.30;;;10.30;99.90;;;;;;4989469;28;20451;-50
2022/09/24 03:22:35;;;;;;;3.57;2.07;;;10.40;99.90;;;;;;4988271;28;20507;-48
2022/09/24 03:25:02;;;;;;;2.20;2.00;;;10.50;99.90;;;;;;4988127;28;20514;-51
2022/09/24 03:27:29;;;;;;;2.70;1.80;;;10.60;99.90;;;;;;4988801;28;21008;-47
2022/09/24 03:32:40;;;;;;;8.30;2.67;;;10.50;99.90;;;;;;4988709;28;20474;-48
2022/09/24 03:35:10;;;;;;;2.20;1.80;;;9.70;99.90;;;;;;4988711;28;20476;-48
2022/09/24 03:37:37;;;;;;;3.30;2.20;;;9.70;99.90;;;;;;4988748;28;20469;-49
2022/09/24 03:40:05;;;;;;;4.03;2.00;;;9.90;99.90;;;;;;4988551;28;20501;-48
2022/09/24 03:42:33;;;;;;;3.10;2.20;;;10.00;99.90;;;;;;4988748;28;20513;-48
2022/09/24 03:45:00;;;;;;;4.63;2.20;;;9.50;99.90;;;;;;4988681;28;20487;-48
2022/09/24 03:47:27;;;;;;;2.93;2.50;;;9.40;99.90;;;;;;4988634;28;20511;-51
2022/09/24 03:49:54;;;;;;;2.77;2.40;;;9.60;99.90;;;;;;4988177;28;20946;-48
2022/09/24 03:52:22;;;;;;;3.53;2.57;;;9.30;99.90;;;;;;4988809;28;20800;-48
2022/09/24 03:54:50;;;;;;;4.30;2.97;;;9.30;99.90;;;;;;4988301;28;20502;-51
2022/09/24 03:57:17;;;;;;;3.40;2.53;;;9.30;99.90;;;;;;4988577;28;20500;-47
2022/09/24 03:59:44;;;;;;;4.60;2.67;;;9.60;99.90;;;;;;4988356;28;20483;-48
2022/09/24 04:02:12;;;;;;;3.43;2.40;;;9.80;99.90;;;;;;4988333;28;20445;-48
2022/09/24 04:04:39;;;;;;;2.97;2.17;;;9.90;99.90;;;;;;4987974;28;21096;-47
2022/09/24 04:07:06;;;;;;;2.90;2.13;;;10.00;99.90;;;;;;4988723;28;20502;-51
2022/09/24 04:09:34;;;;;;;3.30;2.60;;;10.00;99.90;;;;;;4988244;28;20959;-48
2022/09/24 04:12:01;;;;;;;3.73;2.87;;;10.00;99.90;;;;;;4988321;28;20531;-49
2022/09/24 04:14:28;;;;;;;3.07;2.87;;;10.00;99.90;;;;;;4987882;28;20489;-49
2022/09/24 04:16:56;;;;;;;4.93;3.50;;;10.10;99.90;;;;;;4988320;28;20472;-48
2022/09/24 04:19:23;;;;;;;3.93;3.43;;;10.10;99.90;;;;;;4988408;28;20556;-50
2022/09/24 04:21:50;;;;;;;3.57;3.23;;;10.10;99.90;;;;;;4988437;28;20483;-47
2022/09/24 04:24:17;;;;;;;3.73;2.50;;;10.10;99.90;;;;;;4987664;28;20511;-48
2022/09/24 04:26:45;;;;;;;2.50;2.07;;;10.20;99.90;;;;;;4988313;28;20507;-48
2022/09/24 04:29:12;;;;;;;2.47;1.70;;;10.00;99.90;;;;;;4988188;28;20445;-49
2022/09/24 04:31:39;;;;;;;2.10;1.90;;;10.00;99.90;;;;;;4987890;28;20449;-48
2022/09/24 04:34:06;;;;;;;2.10;1.90;;;10.10;99.90;;;;;;4988990;28;20443;-48
2022/09/24 04:36:33;;;;;;;1.90;1.50;;;10.20;99.90;;;;;;4991412;28;20492;-47
2022/09/24 04:39:02;;;;;;;5.00;2.03;;;10.20;99.90;;;;;;4991278;28;20966;-51
2022/09/24 04:41:29;;;;;;;3.30;2.57;;;10.10;99.90;;;;;;4991194;28;20830;-48
2022/09/24 04:43:58;;;;;;;3.27;2.73;;;8.90;99.90;;;;;;4991218;28;20476;-47
2022/09/24 04:46:25;;;;;;;6.10;2.70;;;9.10;99.90;;;;;;4991053;28;20866;-49
2022/09/24 04:48:52;;;;;;;3.10;2.30;;;9.50;99.90;;;;;;4991356;28;20540;-49
2022/09/24 04:51:20;;;;;;;2.57;2.13;;;9.60;99.90;;;;;;4991178;28;20499;-51
2022/09/24 04:53:49;;;;;;;3.20;2.10;;;9.90;99.90;;;;;;4990976;28;20497;-48
2022/09/24 04:56:16;;;;;;;2.20;1.83;;;10.00;99.90;;;;;;4991197;28;20547;-48
2022/09/24 04:58:43;;;;;;;2.47;2.17;;;10.00;99.90;;;;;;4990861;28;20476;-48
2022/09/24 05:01:12;;;;;;;3.60;2.27;;;10.00;99.90;;;;;;4991336;28;20527;-48
2022/09/24 05:03:39;;;;;;;3.70;1.90;;;10.00;99.90;;;;;;4990904;28;20503;-48
2022/09/24 05:06:06;;;;;;;2.87;2.30;;;10.00;99.90;;;;;;4990891;28;20474;-50
2022/09/24 05:08:33;;;;;;;2.33;1.90;;;9.90;99.90;;;;;;4990831;28;20445;-48
2022/09/24 05:11:01;;;;;;;2.53;1.80;;;9.90;99.90;;;;;;4991704;28;20448;-49
2022/09/24 05:13:28;;;;;;;3.20;2.40;;;9.80;99.90;;;;;;4992545;28;20440;-48
2022/09/24 05:15:55;;;;;;;3.00;2.60;;;9.80;99.90;;;;;;4993150;28;20524;-48
2022/09/24 05:18:23;;;;;;;2.33;2.10;;;9.80;99.90;;;;;;4990726;28;20899;-48
2022/09/24 05:20:51;;;;;;;2.80;2.33;;;9.80;99.90;;;;;;4990927;28;20453;-47
2022/09/24 05:23:17;;;;;;;2.97;2.20;;;9.70;99.90;;;;;;4990905;28;20452;-48
2022/09/24 05:28:31;;;;;;;1.97;1.87;;;9.60;99.90;;;;;;4990931;28;20437;-49
2022/09/24 05:30:58;;;;;;;2.80;2.00;;;9.70;99.90;;;;;;4990482;28;20453;-49
2022/09/24 05:33:27;;;;;;;2.77;2.27;;;9.80;99.90;;;;;;4990702;28;20905;-48
2022/09/24 05:35:54;;;;;;;2.07;1.73;;;9.80;99.90;;;;;;4990547;28;20537;-48
2022/09/24 05:38:21;;;;;;;7.10;2.93;;;9.80;99.90;;;;;;4990648;28;20445;-48
2022/09/24 05:40:48;;;;;;;3.23;2.77;;;9.60;99.90;;;;;;4990683;28;20448;-48
2022/09/24 05:43:18;;;;;;;2.53;2.33;;;9.70;99.90;;;;;;4990314;28;20451;-48
2022/09/24 05:45:45;;;;;;;3.20;2.13;;;9.80;99.90;;;;;;4989638;28;20488;-49
2022/09/24 05:48:12;;;;;;;2.40;2.13;;;9.80;99.90;;;;;;4990546;28;20492;-48
2022/09/24 05:50:41;;;;;;;2.97;2.30;;;9.90;99.90;;;;;;4990319;28;20497;-49
2022/09/24 05:53:09;;;;;;;3.20;2.17;;;9.90;99.90;;;;;;4990252;28;20448;-48
2022/09/24 05:55:36;;;;;;;4.60;4.20;;;10.10;99.90;;;;;;4990183;28;20445;-48
2022/09/24 05:58:05;;;;;;;6.40;4.27;;;10.10;99.90;;;;;;4989877;28;20539;-48
2022/09/24 06:00:32;;;;;;;4.30;3.90;;;10.10;99.90;;;;;;4990363;28;20502;-49
2022/09/24 06:03:05;;;;;;;4.60;4.20;;;10.10;99.90;;;;;;4990588;28;20984;-48
2022/09/24 06:05:33;;;;;;;8.03;5.40;;;10.20;99.90;;;;;;4990173;28;21002;-48
2022/09/24 06:08:01;;;;;;;5.60;5.13;;;10.20;99.90;;;;;;4990117;28;20452;-51
2022/09/24 06:10:28;;;;;;;4.83;4.40;;;10.10;99.90;;;;;;4990121;28;20844;-49
2022/09/24 06:12:55;;;;;;;6.33;4.47;;;10.30;99.90;;;;;;4990095;28;20476;-48
2022/09/24 06:15:23;;;;;;;6.23;4.50;;;10.40;99.90;;;;;;4990084;28;20473;-50
2022/09/24 06:17:53;;;;;;;6.40;4.67;;;10.30;99.90;;;;;;4990108;28;20809;-48
2022/09/24 06:20:20;;;;;;;4.57;3.90;;;9.80;99.90;;;;;;4990128;28;20445;-48
2022/09/24 06:22:47;;;;;;;4.83;3.60;;;9.80;99.90;;;;;;4990050;28;20491;-48
2022/09/24 06:25:16;;;;;;;6.10;3.47;;;9.90;99.90;;;;;;4989091;28;21083;-48
2022/09/24 06:27:43;;;;;;;6.33;4.93;;;10.10;99.90;;;;;;4989702;28;20508;-48
2022/09/24 06:30:11;;;;;;;7.57;6.20;;;10.10;99.90;;;;;;4990316;28;20458;-50
2022/09/24 06:32:38;;;;;;;5.90;5.40;;;10.10;99.90;;;;;;4989909;28;20452;-48
2022/09/24 06:35:06;;;;;;;5.70;5.13;;;10.20;99.90;;;;;;4989570;28;20950;-48
2022/09/24 06:37:32;;;;;;;5.93;5.33;;;10.10;99.90;;;;;;4989974;28;20476;-48
2022/09/24 06:40:00;;;;;;;9.60;7.10;;;9.90;99.90;;;;;;4989810;28;20450;-48
2022/09/24 06:42:29;;;;;;;7.93;6.07;;;9.80;99.90;;;;;;4989382;28;20448;-48
2022/09/24 06:44:56;;;;;;;5.90;5.30;;;10.00;99.90;;;;;;4989491;28;20495;-48
2022/09/24 06:47:24;;;;;;;6.40;5.30;;;10.10;99.90;;;;;;4989574;28;21030;-48
2022/09/24 06:49:51;;;;;;;6.60;6.00;;;10.20;99.90;;;;;;4989670;28;20829;-50
2022/09/24 06:52:17;;;;;;;9.73;8.73;;;10.30;99.90;;;;;;4989607;28;20480;-48
2022/09/24 06:54:44;;;;;;;12.23;11.00;;;10.30;99.90;;;;;;4989177;28;20472;-48
2022/09/24 06:57:11;;;;;;;5.53;4.93;;;10.20;99.90;;;;;;4989234;28;20500;-48
2022/09/24 06:59:40;;;;;;;7.47;6.00;;;10.00;99.90;;;;;;4989400;28;20532;-48
2022/09/24 07:02:09;;;;;;;6.13;4.50;;;10.00;99.90;;;;;;4989361;28;20645;-48
2022/09/24 07:04:36;;;;;;;5.63;4.03;;;10.20;99.90;;;;;;4989303;28;20484;-47
2022/09/24 07:09:49;;;;;;;13.20;9.70;;;10.60;99.90;;;;;;4989171;28;20428;-45
2022/09/24 07:12:16;;;;;;;14.30;9.17;;;10.60;99.90;;;;;;4988954;28;20532;-50
2022/09/24 07:14:44;;;;;;;8.53;7.33;;;10.60;99.90;;;;;;4988567;28;20833;-48
2022/09/24 07:17:11;;;;;;;8.87;6.73;;;10.70;99.90;;;;;;4989017;28;20514;-48
2022/09/24 07:19:38;;;;;;;15.37;10.57;;;10.70;99.90;;;;;;4990217;28;20489;-48
2022/09/24 07:22:05;;;;;;;14.63;11.87;;;10.60;99.90;;;;;;4991200;28;20477;-48
2022/09/24 07:24:32;;;;;;;14.57;9.97;;;10.50;99.90;;;;;;4988420;28;20983;-48
2022/09/24 07:26:59;;;;;;;16.07;7.93;;;10.50;99.90;;;;;;4988817;28;20560;-49
2022/09/24 07:29:26;;;;;;;9.37;7.23;;;10.50;99.90;;;;;;4988399;28;20495;-49
2022/09/24 07:31:54;;;;;;;14.83;9.20;;;10.50;99.90;;;;;;4988457;28;20972;-48
2022/09/24 07:34:21;;;;;;;14.43;10.47;;;10.70;99.90;;;;;;4988491;28;20495;-51
2022/09/24 07:36:48;;;;;;;13.50;10.00;;;10.80;99.90;;;;;;4988544;28;21011;-48
2022/09/24 07:39:17;;;;;;;11.27;9.43;;;10.80;99.90;;;;;;4988684;28;20872;-48
2022/09/24 07:41:44;;;;;;;9.03;8.10;;;10.50;99.90;;;;;;4988446;28;20455;-49
2022/09/24 07:44:11;;;;;;;12.50;8.90;;;10.60;99.90;;;;;;4988270;28;20458;-48
2022/09/24 07:46:38;;;;;;;10.67;9.60;;;10.70;99.90;;;;;;4990234;28;20568;-49
2022/09/24 07:49:06;;;;;;;13.60;9.60;;;10.70;99.90;;;;;;4988772;28;20480;-49
2022/09/24 07:51:34;;;;;;;7.80;6.50;;;10.80;99.90;;;;;;4988691;28;20869;-49
2022/09/24 07:54:01;;;;;;;9.67;5.20;;;10.80;99.90;;;;;;4988372;28;20523;-45
2022/09/24 07:56:27;;;;;;;7.33;4.70;;;10.80;99.90;;;;;;4988569;28;20552;-48
2022/09/24 07:58:54;;;;;;;6.90;5.17;;;10.80;99.90;;;;;;4987856;28;20457;-51
2022/09/24 08:01:21;;;;;;;7.17;5.70;;;10.80;99.90;;;;;;4987577;28;20470;-48
2022/09/24 08:03:50;;;;;;;4.70;4.30;;;10.90;99.90;;;;;;4987564;28;20477;-46
2022/09/24 08:06:20;;;;;;;5.77;3.93;;;11.00;99.90;;;;;;4989676;28;20476;-49
2022/09/24 08:08:49;;;;;;;4.97;4.50;;;10.90;99.90;;;;;;4990479;28;20557;-51
2022/09/24 08:11:16;;;;;;;3.80;3.40;;;10.70;99.90;;;;;;4993179;28;20979;-47
2022/09/24 08:13:44;;;;;;;5.60;3.23;;;10.70;99.90;;;;;;4991903;28;20536;-49
2022/09/24 08:16:11;;;;;;;2.70;2.50;;;10.70;99.90;;;;;;4992131;28;20504;-48
2022/09/24 08:18:39;;;;;;;4.20;2.67;;;10.70;99.90;;;;;;4992204;28;20443;-48
2022/09/24 08:21:08;;;;;;;6.70;4.70;;;10.80;99.90;;;;;;4991958;28;20445;-50
2022/09/24 08:23:36;;;;;;;4.73;3.50;;;11.00;99.90;;;;;;4991165;28;20960;-48
2022/09/24 08:26:03;;;;;;;6.50;3.90;;;11.10;99.90;;;;;;4992101;28;20484;-48
2022/09/24 08:28:31;;;;;;;3.93;3.20;;;11.20;99.90;;;;;;4991745;28;20537;-49
2022/09/24 08:30:59;;;;;;;4.03;3.50;;;11.20;99.90;;;;;;4991363;28;20445;-49
2022/09/24 08:33:26;;;;;;;4.10;3.70;;;11.30;99.90;;;;;;4991504;28;20505;-48
2022/09/24 08:35:53;;;;;;;5.90;4.00;;;11.30;99.90;;;;;;4991809;28;20886;-49
2022/09/24 08:38:20;;;;;;;4.00;3.37;;;11.40;99.90;;;;;;4991592;28;20543;-48
2022/09/24 08:40:56;;;;;;;4.23;3.63;;;11.20;99.90;;;;;;4991387;28;20465;-49
2022/09/24 08:43:36;;;;;;;5.00;4.13;;;11.20;99.90;;;;;;4991073;28;20451;-48
2022/09/24 08:49:00;;;;;;;3.60;3.30;;;11.30;99.90;;;;;;4991677;28;20512;-48
2022/09/24 08:51:30;;;;;;;4.40;2.50;;;11.50;99.90;;;;;;4991082;28;20451;-48
2022/09/24 08:54:02;;;;;;;3.50;2.80;;;11.50;99.90;;;;;;4990882;28;20931;-48
2022/09/24 08:56:39;;;;;;;3.47;2.70;;;11.50;99.90;;;;;;4991597;28;20483;-46
2022/09/24 08:59:22;;;;;;;5.30;3.53;;;11.60;99.90;;;;;;4991042;28;20507;-47
2022/09/24 09:01:55;;;;;;;5.90;3.80;;;11.70;99.90;;;;;;4991217;28;20453;-47
2022/09/24 09:04:27;;;;;;;4.20;3.80;;;11.80;99.90;;;;;;4990893;28;20457;-48
2022/09/24 09:07:05;;;;;;;5.80;3.50;;;11.80;99.90;;;;;;4990854;28;20462;-48
2022/09/24 09:09:41;;;;;;;4.00;3.33;;;11.90;99.90;;;;;;4991318;28;20445;-48
2022/09/24 09:12:15;;;;;;;168.17;36.67;;;12.00;99.90;;;;;;4991273;28;20455;-47
2022/09/24 09:14:45;;;;;;;8.47;3.70;;;12.20;99.90;;;;;;4990183;28;20502;-48
2022/09/24 09:17:23;;;;;;;3.40;3.10;;;12.30;99.90;;;;;;4989924;28;20474;-49
2022/09/24 09:19:55;;;;;;;3.87;3.00;;;12.30;99.90;;;;;;4990859;28;20450;-48
2022/09/24 09:22:28;;;;;;;4.20;3.80;;;12.30;99.90;;;;;;4990107;28;20475;-48
2022/09/24 09:24:58;;;;;;;3.50;3.10;;;12.30;99.90;;;;;;4989709;28;20485;-47
2022/09/24 09:27:28;;;;;;;4.00;3.33;;;12.30;99.90;;;;;;4989260;28;20502;-47
2022/09/24 09:29:58;;;;;;;5.63;4.90;;;12.50;99.90;;;;;;4990377;28;20451;-48
2022/09/24 09:32:40;;;;;;;6.63;3.30;;;12.50;99.90;;;;;;4990666;28;20513;-48
2022/09/24 09:35:15;;;;;;;3.47;3.10;;;12.60;99.90;;;;;;4990576;28;20877;-50
2022/09/24 09:37:49;;;;;;;3.90;3.00;;;12.60;99.90;;;;;;4990364;28;20545;-48
2022/09/24 09:40:31;;;;;;;9.37;5.43;;;12.60;99.90;;;;;;4990443;28;20449;-48
2022/09/24 09:43:04;;;;;;;7.50;3.43;;;12.70;99.90;;;;;;4989673;28;20535;-47
2022/09/24 09:45:38;;;;;;;6.03;3.50;;;13.20;99.90;;;;;;4988556;28;21029;-50
2022/09/24 09:48:05;;;;;;;8.00;3.90;;;13.20;99.90;;;;;;4989193;28;20517;-48
2022/09/24 09:50:37;;;;;;;56.10;14.17;;;13.20;99.90;;;;;;4989210;28;20455;-48
2022/09/24 09:53:04;;;;;;;38.83;12.83;;;13.70;99.90;;;;;;4990017;28;20450;-49
2022/09/24 09:55:34;;;;;;;11.43;5.40;;;13.90;99.90;;;;;;4989959;28;20637;-48
2022/09/24 09:58:16;;;;;;;6.80;3.90;;;13.90;99.90;;;;;;4989492;28;20451;-48
2022/09/24 10:00:45;;;;;;;8.83;4.67;;;13.50;99.90;;;;;;4990058;28;20444;-48
2022/09/24 10:03:23;;;;;;;40.20;11.43;;;13.10;99.90;;;;;;4990084;28;21064;-50
2022/09/24 10:05:54;;;;;;;10.63;3.93;;;13.00;99.90;;;;;;4990148;28;20574;-47
2022/09/24 10:08:22;;;;;;;4.13;3.47;;;13.20;99.90;;;;;;4989991;28;20487;-47
2022/09/24 10:10:54;;;;;;;18.60;8.03;;;13.20;99.90;;;;;;4990184;28;20456;-48
2022/09/24 10:13:23;;;;;;;5.53;3.77;;;13.40;99.90;;;;;;4989931;28;20448;-47
2022/09/24 10:15:52;;;;;;;11.97;5.40;;;13.50;99.90;;;;;;4990039;28;20476;-49
2022/09/24 10:18:28;;;;;;;4.43;3.37;;;13.80;99.90;;;;;;4990185;28;20448;-47
2022/09/24 10:20:56;;;;;;;3.57;2.90;;;13.60;99.90;;;;;;4989663;28;20447;-47
2022/09/24 10:23:31;;;;;;;3.13;2.83;;;13.40;99.90;;;;;;4989770;28;20455;-48
2022/09/24 10:26:00;;;;;;;3.53;3.17;;;13.30;99.90;;;;;;4989217;28;21020;-50
2022/09/24 10:31:18;;;;;;;5.80;3.33;;;13.20;99.90;;;;;;4989666;28;20431;-50
2022/09/24 10:33:47;;;;;;;4.10;2.93;;;13.30;99.90;;;;;;4989348;28;20914;-48
2022/09/24 10:36:16;;;;;;;3.47;3.00;;;13.40;99.90;;;;;;4989587;28;20463;-48
2022/09/24 10:38:44;;;;;;;4.70;3.03;;;13.40;99.90;;;;;;4989817;28;20444;-47
2022/09/24 10:41:17;;;;;;;8.97;5.03;;;13.40;99.90;;;;;;4989575;28;20447;-49
2022/09/24 10:43:52;;;;;;;15.70;7.30;;;13.40;99.90;;;;;;4989646;28;20448;-47
2022/09/24 10:46:36;;;;;;;9.17;5.47;;;13.40;99.90;;;;;;4989456;28;20524;-51
2022/09/24 10:49:14;;;;;;;5.37;3.83;;;13.40;99.90;;;;;;4990688;28;20459;-50
2022/09/24 10:51:48;;;;;;;4.30;3.63;;;13.40;99.90;;;;;;4988696;28;20452;-48
2022/09/24 10:54:32;;;;;;;3.13;2.80;;;13.30;99.90;;;;;;4988063;28;20451;-49
2022/09/24 10:57:07;;;;;;;3.43;3.10;;;13.40;99.90;;;;;;4987856;28;21128;-48
2022/09/24 10:59:53;;;;;;;3.77;3.33;;;13.50;99.90;;;;;;4987944;28;20553;-48
2022/09/24 11:02:53;;;;;;;4.80;3.70;;;13.40;99.90;;;;;;4987866;28;20436;-48
2022/09/24 11:05:22;;;;;;;7.40;2.93;;;13.70;99.90;;;;;;4983658;28;20830;-49
2022/09/24 11:08:01;;;;;;;3.50;3.13;;;13.60;99.90;;;;;;4989369;28;20498;-47
2022/09/24 11:10:50;;;;;;;4.67;3.27;;;13.60;99.90;;;;;;4989074;28;20528;-46
2022/09/24 11:13:25;;;;;;;4.70;3.10;;;13.60;99.90;;;;;;4988946;28;20448;-50
2022/09/24 11:16:22;;;;;;;7.83;3.80;;;13.70;99.90;;;;;;4989136;28;20883;-47
2022/09/24 11:18:57;;;;;;;7.37;3.60;;;13.90;99.90;;;;;;4988853;28;20448;-47
2022/09/24 11:21:35;;;;;;;4.17;3.00;;;13.90;99.90;;;;;;4989443;28;20494;-48
2022/09/24 11:24:26;;;;;;;4.10;2.93;;;13.90;99.90;;;;;;4989131;28;20479;-48
2022/09/24 11:27:08;;;;;;;4.70;3.47;;;13.90;99.90;;;;;;4990131;28;20487;-47
2022/09/24 11:29:51;;;;;;;4.10;3.20;;;13.70;99.90;;;;;;4989156;28;20535;-45
2022/09/24 11:32:29;;;;;;;3.90;3.50;;;13.80;99.90;;;;;;4988315;28;20539;-48
2022/09/24 11:35:21;;;;;;;3.33;3.03;;;13.70;99.90;;;;;;4988555;28;20480;-48
2022/09/24 11:37:59;;;;;;;4.17;3.13;;;13.80;99.90;;;;;;4989326;28;20473;-48
2022/09/24 11:40:57;;;;;;;3.00;2.70;;;13.80;99.90;;;;;;4988731;28;20441;-46
2022/09/24 11:43:44;;;;;;;5.97;3.10;;;13.70;99.90;;;;;;4986971;28;20480;-46
2022/09/24 11:46:31;;;;;;;4.53;4.13;;;13.60;99.90;;;;;;4988543;28;20488;-46
2022/09/24 11:49:21;;;;;;;5.17;2.90;;;13.70;99.90;;;;;;4988694;28;20538;-46
2022/09/24 11:51:55;;;;;;;4.27;2.73;;;13.70;99.90;;;;;;4986081;28;21017;-46
2022/09/24 11:54:29;;;;;;;4.30;3.47;;;13.80;99.90;;;;;;4986280;28;20453;-48
2022/09/24 11:57:01;;;;;;;4.37;3.60;;;13.70;99.90;;;;;;4986522;28;21055;-47
2022/09/24 11:59:36;;;;;;;3.20;2.90;;;13.60;99.90;;;;;;4986403;28;20486;-49
2022/09/24 12:02:13;;;;;;;3.33;3.03;;;13.60;99.90;;;;;;4986783;28;20471;-47
2022/09/24 12:04:51;;;;;;;4.47;3.00;;;13.50;99.90;;;;;;4986967;28;20915;-46
2022/09/24 12:07:24;;;;;;;3.20;2.90;;;13.70;99.90;;;;;;4986656;28;20546;-47
2022/09/24 12:09:55;;;;;;;3.50;3.10;;;13.70;99.90;;;;;;4987714;28;20452;-48
2022/09/24 12:12:26;;;;;;;3.03;2.77;;;13.60;99.90;;;;;;4986816;28;20532;-48
2022/09/24 12:14:57;;;;;;;3.87;3.57;;;13.70;99.90;;;;;;4986517;28;21013;-47
2022/09/24 12:17:32;;;;;;;5.50;3.33;;;13.70;99.90;;;;;;4986980;28;20901;-47
2022/09/24 12:20:05;;;;;;;6.43;3.40;;;13.70;99.90;;;;;;4986849;28;20458;-49
2022/09/24 12:22:33;;;;;;;5.53;3.77;;;13.90;99.90;;;;;;4986880;28;20482;-48
2022/09/24 12:25:01;;;;;;;4.10;3.17;;;14.00;99.90;;;;;;4986587;28;20447;-47
2022/09/24 12:27:34;;;;;;;3.90;3.47;;;14.00;99.90;;;;;;4988153;28;20522;-48
2022/09/24 12:33:15;;;;;;;5.33;3.87;;;14.00;99.90;;;;;;4987900;28;20563;-47
2022/09/24 12:36:04;;;;;;;5.17;3.30;;;14.10;99.90;;;;;;4987818;28;20487;-48
2022/09/24 12:38:35;;;;;;;4.87;3.47;;;14.10;99.90;;;;;;4986507;28;20452;-48
2022/09/24 12:41:23;;;;;;;5.33;3.63;;;14.20;99.90;;;;;;4986387;28;20889;-47
2022/09/24 12:43:55;;;;;;;4.60;3.77;;;14.10;99.90;;;;;;4986409;28;20860;-47
2022/09/24 12:46:25;;;;;;;4.67;4.27;;;14.10;99.90;;;;;;4986178;28;20540;-48
2022/09/24 12:48:54;;;;;;;6.13;4.37;;;14.10;99.90;;;;;;4986400;28;20490;-47
2022/09/24 12:51:23;;;;;;;7.30;5.47;;;13.90;99.90;;;;;;4986651;28;20875;-47
2022/09/24 12:54:00;;;;;;;4.73;4.33;;;13.90;99.90;;;;;;4987844;28;20450;-46
2022/09/24 12:56:29;;;;;;;4.93;4.17;;;14.20;99.90;;;;;;4990418;28;20548;-47
2022/09/24 12:58:57;;;;;;;6.17;4.37;;;14.10;99.90;;;;;;4990900;28;20450;-48
2022/09/24 13:01:29;;;;;;;6.13;3.73;;;14.10;99.90;;;;;;4990908;28;20499;-48
2022/09/24 13:04:05;;;;;;;8.73;4.17;;;14.30;99.90;;;;;;4990134;28;20816;-46
2022/09/24 13:06:35;;;;;;;3.73;3.43;;;14.30;99.90;;;;;;4990575;28;20526;-48
2022/09/24 13:09:03;;;;;;;6.80;6.10;;;14.20;99.90;;;;;;4991480;28;20525;-51
2022/09/24 13:11:35;;;;;;;12.37;7.90;;;14.10;99.90;;;;;;4991786;28;20444;-48
2022/09/24 13:14:19;;;;;;;6.70;5.70;;;14.10;99.90;;;;;;4992065;28;20524;-47
2022/09/24 13:16:49;;;;;;;5.00;3.67;;;14.10;99.90;;;;;;4990695;28;20893;-49
2022/09/24 13:19:29;;;;;;;5.73;3.30;;;14.20;99.90;;;;;;4990911;28;20448;-48
2022/09/24 13:22:00;;;;;;;15.40;4.83;;;14.30;99.90;;;;;;4991485;28;20527;-48
2022/09/24 13:24:29;;;;;;;23.47;6.33;;;14.20;99.90;;;;;;4990869;28;20484;-46
2022/09/24 13:27:09;;;;;;;14.67;5.80;;;14.20;99.90;;;;;;4991836;28;21061;-47